createdAt,value
2017-11-07T00:00:26.280Z,3.40
2017-11-07T00:01:26.303Z,3.45
2017-11-07T00:02:26.229Z,3.36
2017-11-07T00:03:26.207Z,3.42
2017-11-07T00:04:26.184Z,3.31
2017-11-07T00:05:36.971Z,3.37
2017-11-07T00:06:26.189Z,3.31
2017-11-07T00:07:26.117Z,3.34
2017-11-07T00:08:26.092Z,3.26
2017-11-07T00:09:26.066Z,3.32
2017-11-07T00:10:26.039Z,3.21
2017-11-07T00:11:26.073Z,3.26
2017-11-07T00:12:25.997Z,3.25
2017-11-07T00:13:25.969Z,3.16
2017-11-07T00:14:25.951Z,3.18
2017-11-07T00:15:25.924Z,3.14
2017-11-07T00:16:25.953Z,3.14
2017-11-07T00:17:25.878Z,3.18
2017-11-07T00:18:25.855Z,3.18
2017-11-07T00:19:25.825Z,3.13
2017-11-07T00:20:25.805Z,3.13
2017-11-07T00:21:25.842Z,3.07
2017-11-07T00:22:25.755Z,3.14
2017-11-07T00:23:25.788Z,3.13
2017-11-07T00:24:25.733Z,3.21
2017-11-07T00:25:25.685Z,3.21
2017-11-07T00:26:25.667Z,3.19
2017-11-07T00:27:25.645Z,3.21
2017-11-07T00:28:25.662Z,3.16
2017-11-07T00:29:25.590Z,3.25
2017-11-07T00:30:25.569Z,3.22
2017-11-07T00:31:25.541Z,3.13
2017-11-07T00:32:25.520Z,3.18
2017-11-07T00:33:25.546Z,3.08
2017-11-07T00:34:25.468Z,3.08
2017-11-07T00:35:25.451Z,3.07
2017-11-07T00:36:25.428Z,3.19
2017-11-07T00:37:25.408Z,3.18
2017-11-07T00:38:25.413Z,3.16
2017-11-07T00:39:25.352Z,3.11
2017-11-07T00:40:25.327Z,3.19
2017-11-07T00:41:25.359Z,3.18
2017-11-07T00:42:25.279Z,3.21
2017-11-07T00:43:25.254Z,3.18
2017-11-07T00:44:25.234Z,3.16
2017-11-07T00:45:25.210Z,3.14
2017-11-07T00:46:25.233Z,3.16
2017-11-07T00:47:25.165Z,3.14
2017-11-07T00:48:25.145Z,3.16
2017-11-07T00:49:25.118Z,3.16
2017-11-07T00:50:25.090Z,3.18
2017-11-07T00:51:25.105Z,3.13
2017-11-07T00:52:25.045Z,3.05
2017-11-07T00:53:25.060Z,3.08
2017-11-07T00:54:24.995Z,3.19
2017-11-07T00:55:24.985Z,3.18
2017-11-07T00:56:34.499Z,3.13
2017-11-07T00:57:24.926Z,3.14
2017-11-07T00:58:24.945Z,3.18
2017-11-07T00:59:24.879Z,3.13
2017-11-07T01:00:24.852Z,3.08
2017-11-07T01:01:24.831Z,3.04
2017-11-07T01:02:24.803Z,2.92
2017-11-07T01:03:24.817Z,2.92
2017-11-07T01:04:24.759Z,2.92
2017-11-07T01:05:24.751Z,2.85
2017-11-07T01:06:24.710Z,2.89
2017-11-07T01:07:24.683Z,2.86
2017-11-07T01:08:24.697Z,2.83
2017-11-07T01:09:24.638Z,2.79
2017-11-07T01:10:24.625Z,2.82
2017-11-07T01:11:24.600Z,2.83
2017-11-07T01:12:24.600Z,2.79
2017-11-07T01:13:24.542Z,2.85
2017-11-07T01:14:24.565Z,2.80
2017-11-07T01:15:24.493Z,2.71
2017-11-07T01:16:24.468Z,2.79
2017-11-07T01:17:24.471Z,2.75
2017-11-07T01:18:24.422Z,2.79
2017-11-07T01:19:24.437Z,2.77
2017-11-07T01:20:24.378Z,2.79
2017-11-07T01:21:24.353Z,2.74
2017-11-07T01:22:24.326Z,2.79
2017-11-07T01:23:24.305Z,2.69
2017-11-07T01:24:24.312Z,2.65
2017-11-07T01:25:24.257Z,2.71
2017-11-07T01:26:24.284Z,2.68
2017-11-07T01:27:24.204Z,2.72
2017-11-07T01:28:24.180Z,2.71
2017-11-07T01:29:24.158Z,2.71
2017-11-07T01:30:24.141Z,2.72
2017-11-07T01:31:24.161Z,2.71
2017-11-07T01:32:24.084Z,2.72
2017-11-07T01:33:24.068Z,2.72
2017-11-07T01:34:24.047Z,2.75
2017-11-07T01:35:24.025Z,2.69
2017-11-07T01:36:24.028Z,2.68
2017-11-07T01:37:23.965Z,2.74
2017-11-07T01:38:23.944Z,2.69
2017-11-07T01:39:23.917Z,2.69
2017-11-07T01:40:23.899Z,2.72
2017-11-07T01:41:23.931Z,2.69
2017-11-07T01:42:23.850Z,2.74
2017-11-07T01:43:23.823Z,2.68
2017-11-07T01:44:23.799Z,2.79
2017-11-07T01:45:23.776Z,2.71
2017-11-07T01:46:31.606Z,2.77
2017-11-07T01:47:32.137Z,2.74
2017-11-07T01:48:23.701Z,2.62
2017-11-07T01:49:23.689Z,2.64
2017-11-07T01:50:23.689Z,2.62
2017-11-07T01:51:23.630Z,2.72
2017-11-07T01:52:23.607Z,2.65
2017-11-07T01:53:23.618Z,2.61
2017-11-07T01:54:23.555Z,2.69
2017-11-07T01:55:23.533Z,2.64
2017-11-07T01:56:23.547Z,2.61
2017-11-07T01:57:23.524Z,2.62
2017-11-07T01:58:23.458Z,2.56
2017-11-07T01:59:23.479Z,2.50
2017-11-07T02:00:23.417Z,2.54
2017-11-07T02:01:23.385Z,2.61
2017-11-07T02:02:23.404Z,2.56
2017-11-07T02:03:23.337Z,2.57
2017-11-07T02:04:23.311Z,2.54
2017-11-07T02:05:23.289Z,2.49
2017-11-07T02:06:23.264Z,2.56
2017-11-07T02:07:23.291Z,2.50
2017-11-07T02:08:23.222Z,2.54
2017-11-07T02:09:23.192Z,2.49
2017-11-07T02:10:23.173Z,2.56
2017-11-07T02:11:23.141Z,2.54
2017-11-07T02:12:23.164Z,2.53
2017-11-07T02:13:23.096Z,2.54
2017-11-07T02:14:23.072Z,2.44
2017-11-07T02:15:23.051Z,2.54
2017-11-07T02:16:23.020Z,2.56
2017-11-07T02:17:23.033Z,2.51
2017-11-07T02:18:22.978Z,2.54
2017-11-07T02:19:22.949Z,2.54
2017-11-07T02:20:22.931Z,2.67
2017-11-07T02:21:22.903Z,2.65
2017-11-07T02:22:22.909Z,2.65
2017-11-07T02:23:22.861Z,2.68
2017-11-07T02:24:22.876Z,2.67
2017-11-07T02:25:22.847Z,2.71
2017-11-07T02:26:22.782Z,2.64
2017-11-07T02:27:22.767Z,2.57
2017-11-07T02:28:22.742Z,2.64
2017-11-07T02:29:22.717Z,2.54
2017-11-07T02:30:22.739Z,2.57
2017-11-07T02:31:22.665Z,2.49
2017-11-07T02:32:22.658Z,2.53
2017-11-07T02:33:22.609Z,2.49
2017-11-07T02:34:22.586Z,2.46
2017-11-07T02:35:22.595Z,2.46
2017-11-07T02:36:22.540Z,2.38
2017-11-07T02:37:22.572Z,2.46
2017-11-07T02:38:22.488Z,2.46
2017-11-07T02:39:22.466Z,2.35
2017-11-07T02:40:22.442Z,2.39
2017-11-07T02:41:22.418Z,2.32
2017-11-07T02:42:22.448Z,2.25
2017-11-07T02:43:22.370Z,2.22
2017-11-07T02:44:22.344Z,2.13
2017-11-07T02:45:22.326Z,2.17
2017-11-07T02:46:22.298Z,2.11
2017-11-07T02:47:22.327Z,2.10
2017-11-07T02:48:22.257Z,2.08
2017-11-07T02:49:22.224Z,2.13
2017-11-07T02:50:22.195Z,2.07
2017-11-07T02:51:22.209Z,2.08
2017-11-07T02:52:22.151Z,2.06
2017-11-07T02:53:22.122Z,2.08
2017-11-07T02:54:22.100Z,2.13
2017-11-07T02:55:22.125Z,2.08
2017-11-07T02:56:22.050Z,2.11
2017-11-07T02:57:22.027Z,2.13
2017-11-07T02:58:22.020Z,2.10
2017-11-07T02:59:21.979Z,2.14
2017-11-07T03:00:21.998Z,2.13
2017-11-07T03:01:21.968Z,2.14
2017-11-07T03:02:21.906Z,2.18
2017-11-07T03:03:21.886Z,2.14
2017-11-07T03:04:21.856Z,2.14
2017-11-07T03:05:21.837Z,2.15
2017-11-07T03:06:21.842Z,2.14
2017-11-07T03:07:21.784Z,2.28
2017-11-07T03:08:21.759Z,2.26
2017-11-07T03:09:21.762Z,2.28
2017-11-07T03:10:21.712Z,2.28
2017-11-07T03:11:21.686Z,2.25
2017-11-07T03:12:21.666Z,2.25
2017-11-07T03:13:21.643Z,2.26
2017-11-07T03:14:21.640Z,2.25
2017-11-07T03:15:21.587Z,2.24
2017-11-07T03:16:21.567Z,2.22
2017-11-07T03:17:21.539Z,2.31
2017-11-07T03:18:21.556Z,2.36
2017-11-07T03:19:21.488Z,2.42
2017-11-07T03:20:21.474Z,2.35
2017-11-07T03:21:21.440Z,2.22
2017-11-07T03:22:21.416Z,2.28
2017-11-07T03:23:21.443Z,2.28
2017-11-07T03:24:21.368Z,2.31
2017-11-07T03:25:21.347Z,2.25
2017-11-07T03:26:21.321Z,2.26
2017-11-07T03:27:21.301Z,2.28
2017-11-07T03:28:21.312Z,2.31
2017-11-07T03:29:31.109Z,2.25
2017-11-07T03:30:21.243Z,2.25
2017-11-07T03:31:21.243Z,2.10
2017-11-07T03:32:21.182Z,2.07
2017-11-07T03:33:21.151Z,2.06
2017-11-07T03:34:21.120Z,2.08
2017-11-07T03:35:21.135Z,2.07
2017-11-07T03:36:21.081Z,2.06
2017-11-07T03:37:21.052Z,1.97
2017-11-07T03:38:21.031Z,1.94
2017-11-07T03:39:21.041Z,2.00
2017-11-07T03:40:21.010Z,2.00
2017-11-07T03:41:20.953Z,2.07
2017-11-07T03:42:20.971Z,2.13
2017-11-07T03:43:20.905Z,2.08
2017-11-07T03:44:20.882Z,2.08
2017-11-07T03:45:20.866Z,2.06
2017-11-07T03:46:20.830Z,2.02
2017-11-07T03:47:20.850Z,2.02
2017-11-07T03:48:20.786Z,2.06
2017-11-07T03:49:20.757Z,2.08
2017-11-07T03:50:20.764Z,2.11
2017-11-07T03:51:20.763Z,2.04
2017-11-07T03:52:20.682Z,2.10
2017-11-07T03:53:20.668Z,2.08
2017-11-07T03:54:20.639Z,2.17
2017-11-07T03:55:20.609Z,2.11
2017-11-07T03:56:20.622Z,2.17
2017-11-07T03:57:20.561Z,2.14
2017-11-07T03:58:20.573Z,2.06
2017-11-07T03:59:20.513Z,2.13
2017-11-07T04:00:20.485Z,2.08
2017-11-07T04:01:20.465Z,1.97
2017-11-07T04:02:20.435Z,2.02
2017-11-07T04:03:20.455Z,2.02
2017-11-07T04:04:20.397Z,2.08
2017-11-07T04:05:20.365Z,2.04
2017-11-07T04:06:20.348Z,1.94
2017-11-07T04:07:20.314Z,1.99
2017-11-07T04:08:20.344Z,2.00
2017-11-07T04:09:20.266Z,1.99
2017-11-07T04:10:20.242Z,1.89
2017-11-07T04:11:20.219Z,1.94
2017-11-07T04:12:20.194Z,1.88
2017-11-07T04:13:20.207Z,1.88
2017-11-07T04:14:20.144Z,1.80
2017-11-07T04:15:20.124Z,1.78
2017-11-07T04:16:20.140Z,1.78
2017-11-07T04:17:20.070Z,1.80
2017-11-07T04:18:20.045Z,1.74
2017-11-07T04:19:30.213Z,1.76
2017-11-07T04:20:30.186Z,1.70
2017-11-07T04:21:19.978Z,1.81
2017-11-07T04:22:19.947Z,1.77
2017-11-07T04:23:19.929Z,1.80
2017-11-07T04:24:19.893Z,1.73
2017-11-07T04:25:19.908Z,1.70
2017-11-07T04:26:19.849Z,1.71
2017-11-07T04:27:19.821Z,1.73
2017-11-07T04:28:19.795Z,1.76
2017-11-07T04:29:19.787Z,1.77
2017-11-07T04:30:19.793Z,1.74
2017-11-07T04:31:19.727Z,1.80
2017-11-07T04:32:19.696Z,1.77
2017-11-07T04:33:19.674Z,1.88
2017-11-07T04:34:19.658Z,1.84
2017-11-07T04:35:19.673Z,1.85
2017-11-07T04:36:19.598Z,1.76
2017-11-07T04:37:19.571Z,1.71
2017-11-07T04:38:19.550Z,1.81
2017-11-07T04:39:19.523Z,1.88
2017-11-07T04:40:19.540Z,1.84
2017-11-07T04:41:20.615Z,1.77
2017-11-07T04:42:19.448Z,1.81
2017-11-07T04:43:19.421Z,1.77
2017-11-07T04:44:19.397Z,1.73
2017-11-07T04:45:19.416Z,1.76
2017-11-07T04:46:19.349Z,1.76
2017-11-07T04:47:19.328Z,1.74
2017-11-07T04:48:19.335Z,1.76
2017-11-07T04:49:19.279Z,1.68
2017-11-07T04:50:19.272Z,1.59
2017-11-07T04:51:19.230Z,1.62
2017-11-07T04:52:19.204Z,1.63
2017-11-07T04:53:19.209Z,1.63
2017-11-07T04:54:19.154Z,1.60
2017-11-07T04:55:19.123Z,1.62
2017-11-07T04:56:19.098Z,1.63
2017-11-07T04:57:19.087Z,1.62
2017-11-07T04:58:19.085Z,1.56
2017-11-07T04:59:19.029Z,1.59
2017-11-07T05:00:19.002Z,1.44
2017-11-07T05:01:19.029Z,1.45
2017-11-07T05:02:18.960Z,1.48
2017-11-07T05:03:18.939Z,1.45
2017-11-07T05:04:18.910Z,1.42
2017-11-07T05:05:18.879Z,1.38
2017-11-07T05:06:18.897Z,1.37
2017-11-07T05:07:18.833Z,1.30
2017-11-07T05:08:18.807Z,1.31
2017-11-07T05:09:18.777Z,1.35
2017-11-07T05:10:28.717Z,1.30
2017-11-07T05:11:18.775Z,1.26
2017-11-07T05:12:18.753Z,1.26
2017-11-07T05:13:18.678Z,1.31
2017-11-07T05:14:18.667Z,1.30
2017-11-07T05:15:18.628Z,1.32
2017-11-07T05:16:18.612Z,1.37
2017-11-07T05:17:18.616Z,1.40
2017-11-07T05:18:18.552Z,1.41
2017-11-07T05:19:18.569Z,1.40
2017-11-07T05:20:18.501Z,1.41
2017-11-07T05:21:18.516Z,1.38
2017-11-07T05:22:18.453Z,1.42
2017-11-07T05:23:18.425Z,1.45
2017-11-07T05:24:18.405Z,1.52
2017-11-07T05:25:18.430Z,1.52
2017-11-07T05:26:18.360Z,1.55
2017-11-07T05:27:18.329Z,1.50
2017-11-07T05:28:18.308Z,1.49
2017-11-07T05:29:18.280Z,1.42
2017-11-07T05:30:18.304Z,1.38
2017-11-07T05:31:18.226Z,1.37
2017-11-07T05:32:18.208Z,1.31
2017-11-07T05:33:18.182Z,1.26
2017-11-07T05:34:18.153Z,1.28
2017-11-07T05:35:18.186Z,1.28
2017-11-07T05:36:18.107Z,1.24
2017-11-07T05:37:18.076Z,1.20
2017-11-07T05:38:18.053Z,1.28
2017-11-07T05:39:18.035Z,1.20
2017-11-07T05:40:18.042Z,1.28
2017-11-07T05:41:17.974Z,1.30
2017-11-07T05:42:17.954Z,1.26
2017-11-07T05:43:17.967Z,1.28
2017-11-07T05:44:17.905Z,1.19
2017-11-07T05:45:17.875Z,1.22
2017-11-07T05:46:17.865Z,1.22
2017-11-07T05:47:17.826Z,1.23
2017-11-07T05:48:17.842Z,1.24
2017-11-07T05:49:17.780Z,1.16
2017-11-07T05:50:17.794Z,1.14
2017-11-07T05:51:17.726Z,1.19
2017-11-07T05:52:17.707Z,1.14
2017-11-07T05:53:17.678Z,1.13
2017-11-07T05:54:17.656Z,1.10
2017-11-07T05:55:25.280Z,1.13
2017-11-07T05:56:30.282Z,1.10
2017-11-07T05:57:17.581Z,1.06
2017-11-07T05:58:17.556Z,1.08
2017-11-07T05:59:17.527Z,1.06
2017-11-07T06:00:17.536Z,0.99
2017-11-07T06:01:17.481Z,1.06
2017-11-07T06:02:17.503Z,1.12
2017-11-07T06:03:17.423Z,1.08
2017-11-07T06:04:17.395Z,1.12
2017-11-07T06:05:17.373Z,1.06
2017-11-07T06:06:17.350Z,1.02
2017-11-07T06:07:17.364Z,1.04
2017-11-07T06:08:17.332Z,0.96
2017-11-07T06:09:17.275Z,0.96
2017-11-07T06:10:17.248Z,1.01
2017-11-07T06:11:17.223Z,0.98
2017-11-07T06:12:17.203Z,0.95
2017-11-07T06:13:17.219Z,0.96
2017-11-07T06:14:17.149Z,1.01
2017-11-07T06:15:17.120Z,0.98
2017-11-07T06:16:17.104Z,0.99
2017-11-07T06:17:26.889Z,1.04
2017-11-07T06:20:01.451Z,1.02
2017-11-07T06:21:01.386Z,1.05
2017-11-07T06:22:01.355Z,1.08
2017-11-07T06:23:01.335Z,1.13
2017-11-07T06:24:01.304Z,1.08
2017-11-07T06:25:01.316Z,1.10
2017-11-07T06:26:01.253Z,1.12
2017-11-07T06:27:01.224Z,1.17
2017-11-07T06:28:01.200Z,1.12
2017-11-07T06:29:01.182Z,1.12
2017-11-07T06:30:01.194Z,1.24
2017-11-07T06:31:01.125Z,1.32
2017-11-07T06:32:01.140Z,1.24
2017-11-07T06:33:01.082Z,1.14
2017-11-07T06:34:01.048Z,1.22
2017-11-07T06:35:01.021Z,1.24
2017-11-07T06:36:00.994Z,1.12
2017-11-07T06:37:01.023Z,1.24
2017-11-07T06:38:00.949Z,1.13
2017-11-07T06:39:00.927Z,1.20
2017-11-07T06:40:00.906Z,1.24
2017-11-07T06:41:00.879Z,1.19
2017-11-07T06:42:00.882Z,1.23
2017-11-07T06:43:00.866Z,1.24
2017-11-07T06:44:00.847Z,1.26
2017-11-07T06:45:00.776Z,1.30
2017-11-07T06:46:00.743Z,1.26
2017-11-07T06:47:00.718Z,1.32
2017-11-07T06:48:00.737Z,1.24
2017-11-07T06:49:00.675Z,1.30
2017-11-07T06:50:00.652Z,1.44
2017-11-07T06:51:00.619Z,1.34
2017-11-07T06:52:00.595Z,1.41
2017-11-07T06:53:00.634Z,1.37
2017-11-07T06:54:00.541Z,1.41
2017-11-07T06:55:00.526Z,1.52
2017-11-07T06:56:00.492Z,1.48
2017-11-07T06:57:00.494Z,1.48
2017-11-07T06:58:00.483Z,1.52
2017-11-07T06:59:00.433Z,1.58
2017-11-07T07:00:00.412Z,1.53
2017-11-07T07:01:00.371Z,1.55
2017-11-07T07:02:00.397Z,1.60
2017-11-07T07:03:00.316Z,1.62
2017-11-07T07:04:00.296Z,1.67
2017-11-07T07:05:00.264Z,1.49
2017-11-07T07:06:00.240Z,1.62
2017-11-07T07:07:00.259Z,1.59
2017-11-07T07:08:00.189Z,1.66
2017-11-07T07:09:00.168Z,1.70
2017-11-07T07:10:00.158Z,1.60
2017-11-07T07:12:39.187Z,1.53
2017-11-07T07:13:39.106Z,1.58
2017-11-07T07:14:39.191Z,1.52
2017-11-07T07:15:39.348Z,1.59
2017-11-07T07:16:39.079Z,1.58
2017-11-07T07:17:39.048Z,1.56
2017-11-07T07:18:38.952Z,1.55
2017-11-07T07:19:38.931Z,1.53
2017-11-07T07:20:38.904Z,1.53
2017-11-07T07:21:38.876Z,1.63
2017-11-07T07:22:38.892Z,1.63
2017-11-07T07:23:38.865Z,1.63
2017-11-07T07:24:38.801Z,1.70
2017-11-07T07:25:38.779Z,1.68
2017-11-07T07:26:38.852Z,1.74
2017-11-07T07:27:38.800Z,1.80
2017-11-07T07:28:38.734Z,1.91
2017-11-07T07:29:38.676Z,1.80
2017-11-07T07:30:38.690Z,1.85
2017-11-07T07:31:38.629Z,1.74
2017-11-07T07:32:38.646Z,1.84
2017-11-07T07:33:38.580Z,1.89
2017-11-07T07:34:38.552Z,1.80
2017-11-07T07:35:38.529Z,1.89
2017-11-07T07:36:38.540Z,2.07
2017-11-07T07:37:46.339Z,2.04
2017-11-07T07:38:38.516Z,2.11
2017-11-07T07:39:38.434Z,2.11
2017-11-07T07:40:38.404Z,2.24
2017-11-07T07:41:38.379Z,2.26
2017-11-07T07:42:38.353Z,2.39
2017-11-07T07:43:38.367Z,2.50
2017-11-07T07:44:38.340Z,2.54
2017-11-07T07:45:38.286Z,2.69
2017-11-07T07:46:38.302Z,2.65
2017-11-07T07:47:38.234Z,2.57
2017-11-07T07:48:38.216Z,2.61
2017-11-07T07:49:38.190Z,2.69
2017-11-07T07:50:38.161Z,2.68
2017-11-07T07:51:38.182Z,2.83
2017-11-07T07:52:38.112Z,3.19
2017-11-07T07:53:38.086Z,3.14
2017-11-07T07:54:38.081Z,3.28
2017-11-07T07:55:38.038Z,3.29
2017-11-07T07:56:38.064Z,3.28
2017-11-07T07:57:38.002Z,3.32
2017-11-07T07:58:37.975Z,3.44
2017-11-07T07:59:37.954Z,3.34
2017-11-07T08:00:37.918Z,3.36
2017-11-07T08:01:37.935Z,3.36
2017-11-07T08:02:37.874Z,3.26
2017-11-07T08:03:37.882Z,3.45
2017-11-07T08:04:37.822Z,3.21
2017-11-07T08:05:37.800Z,3.21
2017-11-07T08:06:37.825Z,3.23
2017-11-07T08:07:37.770Z,3.40
2017-11-07T08:08:37.742Z,3.37
2017-11-07T08:09:37.714Z,3.55
2017-11-07T08:10:37.683Z,3.65
2017-11-07T08:11:37.690Z,3.69
2017-11-07T08:12:37.637Z,3.45
2017-11-07T08:13:37.614Z,3.47
2017-11-07T08:14:37.595Z,3.55
2017-11-07T08:15:37.604Z,3.48
2017-11-07T08:16:37.553Z,3.45
2017-11-07T08:17:37.527Z,3.25
2017-11-07T08:18:37.501Z,3.21
2017-11-07T08:19:37.494Z,3.11
2017-11-07T08:20:37.488Z,3.05
2017-11-07T08:21:37.426Z,3.28
2017-11-07T08:22:37.405Z,3.18
2017-11-07T08:23:37.385Z,3.18
2017-11-07T08:24:37.391Z,3.32
2017-11-07T08:25:37.338Z,3.40
2017-11-07T08:26:37.368Z,3.23
2017-11-07T08:27:37.326Z,3.31
2017-11-07T08:28:46.834Z,3.44
2017-11-07T08:29:37.242Z,3.21
2017-11-07T08:30:37.255Z,3.21
2017-11-07T08:31:37.255Z,3.19
2017-11-07T08:32:37.171Z,3.40
2017-11-07T08:33:37.149Z,3.41
2017-11-07T08:34:37.156Z,3.32
2017-11-07T08:35:37.140Z,3.55
2017-11-07T08:36:37.079Z,3.70
2017-11-07T08:37:37.105Z,3.80
2017-11-07T08:38:37.028Z,3.70
2017-11-07T08:39:37.007Z,3.92
2017-11-07T08:40:36.984Z,3.95
2017-11-07T08:41:36.962Z,4.01
2017-11-07T08:42:37.008Z,4.22
2017-11-07T08:43:36.916Z,4.59
2017-11-07T08:44:36.892Z,4.70
2017-11-07T08:45:36.875Z,4.87
2017-11-07T08:46:36.845Z,4.97
2017-11-07T08:47:36.868Z,5.02
2017-11-07T08:48:36.801Z,5.21
2017-11-07T08:49:36.776Z,5.53
2017-11-07T08:50:36.757Z,5.65
2017-11-07T08:51:36.759Z,5.64
2017-11-07T08:52:36.755Z,5.64
2017-11-07T08:53:36.690Z,5.54
2017-11-07T08:54:36.667Z,5.50
2017-11-07T08:55:36.641Z,5.35
2017-11-07T08:56:36.621Z,5.26
2017-11-07T08:57:44.420Z,5.28
2017-11-07T08:58:36.589Z,5.30
2017-11-07T08:59:36.562Z,5.32
2017-11-07T09:00:36.535Z,5.44
2017-11-07T09:01:36.549Z,5.33
2017-11-07T09:02:36.489Z,5.29
2017-11-07T09:03:36.526Z,5.26
2017-11-07T09:04:36.443Z,5.32
2017-11-07T09:05:36.432Z,5.21
2017-11-07T09:06:36.457Z,5.26
2017-11-07T09:07:36.379Z,5.18
2017-11-07T09:08:36.392Z,5.28
2017-11-07T09:09:36.361Z,5.32
2017-11-07T09:10:36.316Z,5.47
2017-11-07T09:11:36.300Z,5.38
2017-11-07T09:12:36.280Z,5.29
2017-11-07T09:13:36.285Z,5.33
2017-11-07T09:14:36.227Z,5.44
2017-11-07T09:15:36.242Z,5.39
2017-11-07T09:16:36.185Z,5.30
2017-11-07T09:17:36.170Z,5.28
2017-11-07T09:18:36.146Z,5.15
2017-11-07T09:19:36.125Z,5.41
2017-11-07T09:20:36.171Z,5.38
2017-11-07T09:21:36.081Z,5.33
2017-11-07T09:22:36.056Z,5.44
2017-11-07T09:23:36.042Z,5.62
2017-11-07T09:24:36.049Z,5.68
2017-11-07T09:25:35.998Z,5.79
2017-11-07T09:26:35.972Z,5.76
2017-11-07T09:27:35.950Z,5.87
2017-11-07T09:28:35.927Z,5.83
2017-11-07T09:29:35.948Z,6.02
2017-11-07T09:30:35.885Z,6.09
2017-11-07T09:31:35.868Z,6.05
2017-11-07T09:32:35.881Z,5.99
2017-11-07T09:33:35.871Z,5.90
2017-11-07T09:34:35.807Z,6.08
2017-11-07T09:35:35.790Z,5.93
2017-11-07T09:36:35.763Z,5.68
2017-11-07T09:37:35.747Z,5.41
2017-11-07T09:38:35.755Z,5.36
2017-11-07T09:39:35.698Z,5.28
2017-11-07T09:40:35.681Z,5.46
2017-11-07T09:41:35.658Z,5.65
2017-11-07T09:42:35.671Z,5.62
2017-11-07T09:43:35.614Z,5.53
2017-11-07T09:44:35.590Z,5.44
2017-11-07T09:45:35.607Z,5.30
2017-11-07T09:46:35.577Z,5.32
2017-11-07T09:47:35.530Z,5.26
2017-11-07T09:48:35.505Z,5.33
2017-11-07T09:49:35.486Z,5.33
2017-11-07T09:50:43.453Z,5.28
2017-11-07T09:51:35.457Z,5.18
2017-11-07T09:52:35.421Z,5.46
2017-11-07T09:53:35.443Z,5.53
2017-11-07T09:54:35.382Z,5.51
2017-11-07T09:55:35.362Z,5.66
2017-11-07T09:56:35.334Z,5.76
2017-11-07T09:57:35.351Z,5.71
2017-11-07T09:58:35.327Z,5.66
2017-11-07T09:59:35.318Z,5.61
2017-11-07T10:00:35.256Z,5.50
2017-11-07T10:01:35.229Z,5.51
2017-11-07T10:02:35.207Z,5.18
2017-11-07T10:03:56.232Z,5.15
2017-11-07T10:04:35.167Z,5.14
2017-11-07T10:05:35.169Z,5.28
2017-11-07T10:06:35.127Z,5.35
2017-11-07T10:07:35.101Z,5.35
2017-11-07T10:08:35.106Z,5.36
2017-11-07T10:09:35.056Z,5.41
2017-11-07T10:10:35.042Z,5.44
2017-11-07T10:11:45.940Z,5.53
2017-11-07T10:12:34.993Z,5.61
2017-11-07T10:13:35.010Z,5.50
2017-11-07T10:14:35.004Z,5.47
2017-11-07T10:15:34.944Z,5.54
2017-11-07T10:16:34.908Z,5.54
2017-11-07T10:17:34.883Z,5.53
2017-11-07T10:18:34.875Z,5.61
2017-11-07T10:19:34.878Z,5.64
2017-11-07T10:20:34.823Z,5.72
2017-11-07T10:21:34.795Z,5.75
2017-11-07T10:22:34.812Z,5.86
2017-11-07T10:23:34.762Z,5.79
2017-11-07T10:24:34.734Z,5.65
2017-11-07T10:25:34.711Z,5.64
2017-11-07T10:26:34.691Z,5.68
2017-11-07T10:27:34.704Z,5.59
2017-11-07T10:28:34.646Z,5.56
2017-11-07T10:29:34.627Z,5.53
2017-11-07T10:30:34.603Z,5.46
2017-11-07T10:31:34.585Z,5.29
2017-11-07T10:32:34.601Z,5.29
2017-11-07T10:33:34.542Z,5.29
2017-11-07T10:34:34.528Z,5.53
2017-11-07T10:35:34.543Z,5.75
2017-11-07T10:36:34.485Z,6.24
2017-11-07T10:37:34.449Z,6.52
2017-11-07T10:38:34.426Z,6.52
2017-11-07T10:39:34.407Z,6.41
2017-11-07T10:40:34.444Z,6.33
2017-11-07T10:41:34.367Z,6.44
2017-11-07T10:42:34.344Z,6.39
2017-11-07T10:43:43.976Z,6.24
2017-11-07T10:44:34.300Z,6.02
2017-11-07T10:45:34.323Z,5.79
2017-11-07T10:46:34.256Z,5.75
2017-11-07T10:47:34.270Z,5.72
2017-11-07T10:48:34.214Z,5.47
2017-11-07T10:49:34.227Z,5.57
2017-11-07T10:50:34.173Z,5.68
2017-11-07T10:51:34.149Z,5.75
2017-11-07T10:52:34.163Z,5.76
2017-11-07T10:53:34.106Z,5.82
2017-11-07T10:54:34.119Z,5.76
2017-11-07T10:55:34.062Z,5.94
2017-11-07T10:56:34.046Z,6.08
2017-11-07T10:57:34.021Z,6.07
2017-11-07T10:58:34.002Z,6.09
2017-11-07T10:59:34.031Z,5.98
2017-11-07T11:00:33.955Z,6.11
2017-11-07T11:01:33.933Z,6.04
2017-11-07T11:02:33.914Z,6.02
2017-11-07T11:03:33.894Z,6.24
2017-11-07T11:04:33.911Z,6.46
2017-11-07T11:05:33.875Z,6.48
2017-11-07T11:06:33.834Z,6.74
2017-11-07T11:07:33.854Z,6.87
2017-11-07T11:08:33.786Z,7.00
2017-11-07T11:09:33.769Z,7.17
2017-11-07T11:10:33.743Z,7.53
2017-11-07T11:11:33.721Z,7.38
2017-11-07T11:12:33.732Z,7.29
2017-11-07T11:13:33.679Z,7.15
2017-11-07T11:14:33.661Z,6.89
2017-11-07T11:15:33.681Z,6.93
2017-11-07T11:16:33.653Z,6.87
2017-11-07T11:17:33.600Z,6.72
2017-11-07T11:18:33.621Z,6.93
2017-11-07T11:19:33.558Z,6.96
2017-11-07T11:20:33.532Z,7.05
2017-11-07T11:21:33.527Z,6.88
2017-11-07T11:22:33.502Z,6.79
2017-11-07T11:23:33.509Z,6.79
2017-11-07T11:24:33.448Z,6.77
2017-11-07T11:25:33.430Z,6.92
2017-11-07T11:26:33.481Z,6.88
2017-11-07T11:27:33.393Z,6.72
2017-11-07T11:28:33.378Z,6.60
2017-11-07T11:29:33.346Z,6.57
2017-11-07T11:30:33.358Z,6.63
2017-11-07T11:31:33.302Z,6.70
2017-11-07T11:32:33.284Z,6.81
2017-11-07T11:33:33.297Z,6.77
2017-11-07T11:34:33.276Z,7.03
2017-11-07T11:35:33.216Z,7.07
2017-11-07T11:36:33.229Z,7.07
2017-11-07T11:37:33.174Z,6.97
2017-11-07T11:38:33.158Z,7.06
2017-11-07T11:39:33.133Z,7.10
2017-11-07T11:40:33.180Z,7.03
2017-11-07T11:41:33.088Z,7.05
2017-11-07T11:42:33.073Z,7.18
2017-11-07T11:43:33.048Z,7.25
2017-11-07T11:44:33.033Z,7.21
2017-11-07T11:45:33.040Z,7.15
2017-11-07T11:46:32.987Z,6.99
2017-11-07T11:47:32.958Z,7.07
2017-11-07T11:48:32.972Z,6.88
2017-11-07T11:49:32.915Z,6.84
2017-11-07T11:50:32.904Z,6.87
2017-11-07T11:51:32.875Z,6.87
2017-11-07T11:52:32.856Z,6.88
2017-11-07T11:53:40.571Z,6.84
2017-11-07T11:54:32.821Z,7.02
2017-11-07T11:55:32.792Z,6.99
2017-11-07T11:56:32.762Z,7.17
2017-11-07T11:57:32.758Z,7.10
2017-11-07T11:58:32.766Z,7.13
2017-11-07T11:59:32.702Z,7.18
2017-11-07T12:00:32.682Z,7.20
2017-11-07T12:01:32.663Z,7.31
2017-11-07T12:02:32.636Z,7.36
2017-11-07T12:03:32.650Z,7.24
2017-11-07T12:04:32.604Z,7.29
2017-11-07T12:05:32.572Z,7.21
2017-11-07T12:06:32.548Z,7.29
2017-11-07T12:07:32.533Z,7.29
2017-11-07T12:08:32.551Z,7.35
2017-11-07T12:09:32.490Z,7.39
2017-11-07T12:10:32.469Z,7.40
2017-11-07T12:11:32.444Z,7.43
2017-11-07T12:12:32.432Z,7.32
2017-11-07T12:13:32.441Z,7.36
2017-11-07T12:14:32.399Z,7.43
2017-11-07T12:15:32.360Z,7.42
2017-11-07T12:16:32.376Z,7.48
2017-11-07T12:17:32.316Z,7.56
2017-11-07T12:18:32.296Z,7.53
2017-11-07T12:19:32.277Z,7.63
2017-11-07T12:20:32.287Z,7.66
2017-11-07T12:21:32.235Z,7.61
2017-11-07T12:22:32.216Z,7.50
2017-11-07T12:23:32.196Z,7.45
2017-11-07T12:24:32.168Z,7.73
2017-11-07T12:25:32.187Z,7.58
2017-11-07T12:26:32.172Z,7.67
2017-11-07T12:27:32.115Z,7.63
2017-11-07T12:28:32.086Z,7.76
2017-11-07T12:29:32.067Z,7.61
2017-11-07T12:30:32.063Z,7.69
2017-11-07T12:31:32.065Z,7.79
2017-11-07T12:32:32.003Z,7.82
2017-11-07T12:33:31.987Z,7.83
2017-11-07T12:34:31.973Z,7.88
2017-11-07T12:35:31.950Z,7.88
2017-11-07T12:36:31.965Z,7.91
2017-11-07T12:37:31.940Z,7.90
2017-11-07T12:38:31.883Z,7.75
2017-11-07T12:39:31.899Z,7.77
2017-11-07T12:40:31.872Z,7.94
2017-11-07T12:41:31.824Z,7.90
2017-11-07T12:42:31.801Z,8.01
2017-11-07T12:43:31.780Z,8.00
2017-11-07T12:44:31.806Z,8.06
2017-11-07T12:45:31.736Z,8.18
2017-11-07T12:46:31.716Z,8.13
2017-11-07T12:47:31.698Z,8.00
2017-11-07T12:48:31.677Z,8.06
2017-11-07T12:49:31.698Z,8.06
2017-11-07T12:50:31.634Z,8.19
2017-11-07T12:51:31.642Z,8.18
2017-11-07T12:52:31.596Z,8.20
2017-11-07T12:53:31.584Z,8.20
2017-11-07T12:54:31.613Z,8.30
2017-11-07T12:55:31.534Z,8.24
2017-11-07T12:56:31.522Z,8.19
2017-11-07T12:57:31.498Z,8.08
2017-11-07T12:58:31.474Z,8.06
2017-11-07T12:59:31.486Z,8.16
2017-11-07T13:00:31.430Z,8.18
2017-11-07T13:01:31.413Z,8.18
2017-11-07T13:02:31.392Z,8.23
2017-11-07T13:03:31.410Z,8.19
2017-11-07T13:04:31.352Z,8.16
2017-11-07T13:05:31.328Z,8.16
2017-11-07T13:06:31.349Z,8.16
2017-11-07T13:07:31.292Z,8.15
2017-11-07T13:08:31.270Z,8.03
2017-11-07T13:09:31.252Z,8.01
2017-11-07T13:10:31.228Z,8.00
2017-11-07T13:11:31.250Z,8.03
2017-11-07T13:12:31.188Z,8.08
2017-11-07T13:13:31.208Z,8.03
2017-11-07T13:14:31.149Z,8.15
2017-11-07T13:15:31.125Z,7.98
2017-11-07T13:16:31.109Z,8.01
2017-11-07T13:17:31.092Z,8.01
2017-11-07T13:18:31.121Z,7.98
2017-11-07T13:19:31.046Z,8.01
2017-11-07T13:20:31.024Z,8.00
2017-11-07T13:21:31.001Z,7.94